Crosby Hunter — WDH3350 — position and weather

sailwx.info

Track history (hours):
 
Tides and Currents Weather Stations Pressure Air Temp Water Temp Dewpoint Dewpoint Depression Visibility Wind Speed Wind Dir Waves Ship Positions

Crosby Hunter

Owner: Crosby Marine Transportation, LLC, Galliano, LA. More information available from US FCC via Universal Licensing System and Coast Guard Vessel Documentation Center.

Last reported at 2017-Nov-15 06:27 UTC. Time now 2017-Nov-20 17:14 UTC.
Position N 29°34' W 090°30'.

Length 22 m; draft 3.9 m.

Type: Tug. MMSI: 367069420.

Date/timePositionNaut miles runAvg speedWind from/ knotsBaromVisibWave heightAir tempDewpointWater temp
2017-Nov-15 06:27N 29°34' W 090°30'4 8.1
2017-Nov-15 05:53N 29°35' W 090°35'3 7.1
2017-Nov-15 05:30N 29°35' W 090°38'4 7.4
2017-Nov-15 05:00N 29°37' W 090°43'3 5.0
2017-Nov-15 04:30N 29°34' W 090°43'4 7.3
2017-Nov-15 04:00N 29°32' W 090°47'  
2017-Nov-12 21:48N 29°32' W 090°50'2 5.9
2017-Nov-12 21:28N 29°32' W 090°48'2 4.6
2017-Nov-12 21:00N 29°33' W 090°45'2 4.2
2017-Nov-12 20:30N 29°34' W 090°43'1 1.8
2017-Nov-12 20:00N 29°33' W 090°43'2 3.5
2017-Nov-12 19:30N 29°32' W 090°42'3 5.7
2017-Nov-12 19:00N 29°29' W 090°43'4 5.2
2017-Nov-12 18:20N 29°25' W 090°43'1 0.1
2017-Nov-12 07:32N 29°24' W 090°44'1 7.9
2017-Nov-12 07:22N 29°26' W 090°43'3 7.8
2017-Nov-12 06:58N 29°29' W 090°43'3 7.7
2017-Nov-12 06:30N 29°32' W 090°42'2 4.3
2017-Nov-12 06:00N 29°34' W 090°44'3 6.7
2017-Nov-12 05:30N 29°32' W 090°47'  
Track history (hours):
 
Tides and Currents Weather Stations Pressure Air Temp Water Temp Dewpoint Dewpoint Depression Visibility Wind Speed Wind Dir Waves Ship Positions

Crosby Hunter

Owner: Crosby Marine Transportation, LLC, Galliano, LA. More information available from US FCC via Universal Licensing System and Coast Guard Vessel Documentation Center.

Last reported at 2017-Nov-15 06:27 UTC. Time now 2017-Nov-20 17:14 UTC.
Position N 29°34' W 090°30'.

Length 22 m; draft 3.9 m.

Type: Tug. MMSI: 367069420.

Date/timePositionNaut miles runAvg speedWind from/ knotsBaromVisibWave heightAir tempDewpointWater temp
2017-Nov-15 06:27N 29°34' W 090°30'4 8.1
2017-Nov-15 05:53N 29°35' W 090°35'3 7.1
2017-Nov-15 05:30N 29°35' W 090°38'4 7.4
2017-Nov-15 05:00N 29°37' W 090°43'3 5.0
2017-Nov-15 04:30N 29°34' W 090°43'4 7.3
2017-Nov-15 04:00N 29°32' W 090°47'  
2017-Nov-12 21:48N 29°32' W 090°50'2 5.9
2017-Nov-12 21:28N 29°32' W 090°48'2 4.6
2017-Nov-12 21:00N 29°33' W 090°45'2 4.2
2017-Nov-12 20:30N 29°34' W 090°43'1 1.8
2017-Nov-12 20:00N 29°33' W 090°43'2 3.5
2017-Nov-12 19:30N 29°32' W 090°42'3 5.7
2017-Nov-12 19:00N 29°29' W 090°43'4 5.2
2017-Nov-12 18:20N 29°25' W 090°43'1 0.1
2017-Nov-12 07:32N 29°24' W 090°44'1 7.9
2017-Nov-12 07:22N 29°26' W 090°43'3 7.8
2017-Nov-12 06:58N 29°29' W 090°43'3 7.7
2017-Nov-12 06:30N 29°32' W 090°42'2 4.3
2017-Nov-12 06:00N 29°34' W 090°44'3 6.7
2017-Nov-12 05:30N 29°32' W 090°47'  

Dump ship's entire track history